Terminal Aerodrome Forecast
Issued by NWS Melbourne, FL

Current Version | Previous Version | Text Only | Print | Product List | Glossary On
Versions: 1 2 3 4 5 6 7 8 9 10 11 12 13 14 15
000
FTUS42 KMLB 211700
TAFVRB
TAF
KVRB 211739Z 2118/2218 08009KT P6SM VCTS SCT040CB BKN250
      TEMPO 2119/2121 3SM TSRA BKN030CB OVC080
     FM220100 VRB03KT P6SM SCT035 BKN150=

USA.gov is the U.S. government's official web portal to all federal, state and local government web resources and services.